Track Шепелев Николай

Time Latitude Longitude Accuracy (66% radius in meters) Altitude (meters) Speed (km/hour) Bearing (degrees) Battery (%) GPS flag
09:57:37 59.743368 30.397363 1.5 27.9 0 286.64001464844 89 1 delete
09:57:26 59.743358 30.397400 1 30.3 0 254.66000366211 89 1 delete
09:57:14 59.743358 30.397400 1.1000000238419 30.3 0 254.66000366211 89 1 delete
09:57:02 59.743352 30.397395 1.3999999761581 30.2 0.56928277015686 5.25 89 1 delete
09:56:51 59.743297 30.397383 1.5 29.4 0 200.69000244141 89 1 delete
09:56:39 59.743275 30.397402 1.3999999761581 28.8 0 297.44000244141 89 1 delete
09:56:27 59.743265 30.397400 1.5 28.1 0.6583297252655 150.41999816895 89 1 delete
09:56:05 59.743332 30.397428 1.3999999761581 25.6 0.95017719268799 78.389999389648 89 1 delete
09:56:03 59.743347 30.397407 1.3999999761581 25.4 0.86061555147171 177.83999633789 89 1 delete
09:55:54 59.743417 30.397488 1.3999999761581 26.2 0.65318250656128 185.27000427246 89 1 delete
09:55:51 59.743438 30.397503 1.3999999761581 26.9 0.50442779064178 154.72999572754 90 1 delete
09:55:39 59.743493 30.397483 1 24.8 0 96.870002746582 90 1 delete
09:55:26 59.743493 30.397483 1.1000000238419 24.8 0 96.870002746582 90 1 delete
09:55:15 59.743495 30.397482 1.3999999761581 24.8 0 40.529998779297 90 1 delete
09:55:02 59.743515 30.397490 1.3999999761581 24.7 0.48229470849037 172.69000244141 90 1 delete
09:54:50 59.743502 30.397460 1.3999999761581 26.3 0.67480081319809 301.76998901367 90 1 delete
09:54:38 59.743487 30.397478 1.3999999761581 26.6 0 126.11000061035 90 1 delete
09:54:27 59.743487 30.397478 1.3999999761581 26.6 0 126.11000061035 90 1 delete
09:54:14 59.743485 30.397475 1.5 26.4 0.31243640184402 0.61000001430511 90 1 delete
09:54:02 59.743500 30.397467 1 23.1 0 148.78999328613 90 1 delete
09:53:51 59.743500 30.397467 1.3999999761581 23.1 0 148.78999328613 90 1 delete
09:53:39 59.743500 30.397467 1.2999999523163 23.1 0 148.78999328613 90 1 delete
09:53:27 59.743500 30.397467 1.3999999761581 23.1 0 148.78999328613 90 1 delete
09:53:15 59.743547 30.397473 1.2000000476837 27.5 0.33662834763527 94.029998779297 90 1 delete
09:53:03 59.743528 30.397430 1.1000000238419 27.9 0 127.38999938965 90 1 delete
09:52:51 59.743500 30.397418 1.2999999523163 27 0 306.13000488281 90 1 delete
09:52:39 59.743478 30.397438 1.5 25.4 0 180.25 90 1 delete
09:52:27 59.743462 30.397425 1.2999999523163 27.1 0 302.4700012207 90 1 delete
09:52:16 59.743458 30.397445 1 25.7 0 281.58999633789 90 1 delete
09:52:04 59.743458 30.397445 1.3999999761581 25.7 0 281.58999633789 90 1 delete
09:51:51 59.743458 30.397445 1.1000000238419 25.7 0 281.58999633789 90 1 delete
09:51:39 59.743458 30.397445 1.1000000238419 25.7 0 281.58999633789 90 1 delete
09:51:28 59.743458 30.397445 1.6000000238419 25.7 0 281.58999633789 90 1 delete
09:51:16 59.743467 30.397417 1.1000000238419 23.5 0 190.16999816895 90 1 delete
09:51:04 59.743465 30.397418 1.5 23.2 0 159.96000671387 90 1 delete
09:50:52 59.743497 30.397402 1.3999999761581 21.3 0.76590669155121 141.71000671387 90 1 delete
09:50:42 59.743593 30.397425 1.3999999761581 20.2 0.98466360569 217.35000610352 90 1 delete
09:50:39 59.743633 30.397450 1.3999999761581 20.7 0.93576502799988 171.05000305176 90 1 delete
09:50:34 59.743687 30.397465 1.3999999761581 22.6 1.5240925550461 182.38999938965 90 1 delete
09:50:27 59.743772 30.397530 1.3999999761581 25.5 2.7331750392914 180.5 90 1 delete
09:50:26 59.743798 30.397540 1.5 25.8 2.8186187744141 183 90 1 delete
09:50:23 59.743882 30.397560 1.3999999761581 26.5 2.9786975383759 173.0299987793 90 1 delete
09:50:20 59.743973 30.397550 1.5 27 2.9503877162933 180.58999633789 90 1 delete
09:50:17 59.744063 30.397553 1.5 29.2 3.0981130599976 186.64999389648 90 1 delete
09:50:14 59.744157 30.397558 1.5 31.5 2.958108663559 172.16999816895 90 1 delete
09:50:10 59.744272 30.397547 1.6000000238419 33 2.1062433719635 175.82000732422 90 1 delete
09:50:07 59.744362 30.397510 1.5 33.5 1.4978417158127 169 90 1 delete
09:50:04 59.744430 30.397488 1.5 34.1 1.69498026371 185.58999633789 90 1 delete
09:49:57 59.744427 30.397368 1.6000000238419 34.4 3.3420913219452 54.889999389648 90 1 delete
09:49:54 59.744370 30.397213 1.5 33.8 3.3431208133698 37.380001068115 90 1 delete